sensor_id;sensor_type;location;lat;lon;timestamp;temperature;humidity
2435;DHT22;1228;51.022;6.764;2022-10-26T00:02:15;12.20;99.90
2435;DHT22;1228;51.022;6.764;2022-10-26T00:04:41;12.20;99.90
2435;DHT22;1228;51.022;6.764;2022-10-26T00:07:06;12.20;99.90
2435;DHT22;1228;51.022;6.764;2022-10-26T00:09:32;12.20;99.90
2435;DHT22;1228;51.022;6.764;2022-10-26T00:11:57;12.20;99.90
2435;DHT22;1228;51.022;6.764;2022-10-26T00:14:23;12.20;99.90
2435;DHT22;1228;51.022;6.764;2022-10-26T00:16:49;12.30;99.90
2435;DHT22;1228;51.022;6.764;2022-10-26T00:19:14;12.30;99.90
2435;DHT22;1228;51.022;6.764;2022-10-26T00:21:40;12.30;99.90
2435;DHT22;1228;51.022;6.764;2022-10-26T00:24:05;12.30;99.90
2435;DHT22;1228;51.022;6.764;2022-10-26T00:26:31;12.30;99.90
2435;DHT22;1228;51.022;6.764;2022-10-26T00:28:56;12.30;99.90
2435;DHT22;1228;51.022;6.764;2022-10-26T00:31:23;12.40;99.90
2435;DHT22;1228;51.022;6.764;2022-10-26T00:33:53;12.40;99.90
2435;DHT22;1228;51.022;6.764;2022-10-26T00:36:20;12.40;99.90
2435;DHT22;1228;51.022;6.764;2022-10-26T00:38:54;12.40;99.90
2435;DHT22;1228;51.022;6.764;2022-10-26T00:41:26;12.50;99.90
2435;DHT22;1228;51.022;6.764;2022-10-26T00:43:53;12.50;99.90
2435;DHT22;1228;51.022;6.764;2022-10-26T00:46:24;12.50;99.90
2435;DHT22;1228;51.022;6.764;2022-10-26T00:49:04;12.50;99.90
2435;DHT22;1228;51.022;6.764;2022-10-26T00:51:34;12.50;99.90
2435;DHT22;1228;51.022;6.764;2022-10-26T00:54:04;12.60;99.90
2435;DHT22;1228;51.022;6.764;2022-10-26T00:56:32;12.60;99.90
2435;DHT22;1228;51.022;6.764;2022-10-26T00:59:03;12.60;99.90
2435;DHT22;1228;51.022;6.764;2022-10-26T01:01:31;12.60;99.90
2435;DHT22;1228;51.022;6.764;2022-10-26T01:03:59;12.60;99.90
2435;DHT22;1228;51.022;6.764;2022-10-26T01:06:26;12.60;99.90
2435;DHT22;1228;51.022;6.764;2022-10-26T01:08:52;12.70;99.90
2435;DHT22;1228;51.022;6.764;2022-10-26T01:11:18;12.70;99.90
2435;DHT22;1228;51.022;6.764;2022-10-26T01:13:45;12.70;99.90
2435;DHT22;1228;51.022;6.764;2022-10-26T01:22:14;12.80;99.90
2435;DHT22;1228;51.022;6.764;2022-10-26T01:27:38;12.80;99.90
2435;DHT22;1228;51.022;6.764;2022-10-26T01:35:45;12.90;99.90
2435;DHT22;1228;51.022;6.764;2022-10-26T01:40:59;12.90;99.90
2435;DHT22;1228;51.022;6.764;2022-10-26T01:43:31;12.90;99.90
2435;DHT22;1228;51.022;6.764;2022-10-26T01:45:58;12.90;99.90
2435;DHT22;1228;51.022;6.764;2022-10-26T01:48:24;13.00;99.90
2435;DHT22;1228;51.022;6.764;2022-10-26T01:50:52;13.00;99.90
2435;DHT22;1228;51.022;6.764;2022-10-26T01:53:19;13.00;99.90
2435;DHT22;1228;51.022;6.764;2022-10-26T01:55:52;13.00;99.90
2435;DHT22;1228;51.022;6.764;2022-10-26T02:04:19;13.00;99.90
2435;DHT22;1228;51.022;6.764;2022-10-26T02:12:36;12.80;99.90
2435;DHT22;1228;51.022;6.764;2022-10-26T02:15:21;12.80;99.90
2435;DHT22;1228;51.022;6.764;2022-10-26T02:18:00;12.80;99.90
2435;DHT22;1228;51.022;6.764;2022-10-26T02:20:35;12.80;99.90
2435;DHT22;1228;51.022;6.764;2022-10-26T02:23:04;12.80;99.90
2435;DHT22;1228;51.022;6.764;2022-10-26T02:25:34;12.80;99.90
2435;DHT22;1228;51.022;6.764;2022-10-26T02:28:11;12.80;99.90
2435;DHT22;1228;51.022;6.764;2022-10-26T02:30:39;12.90;99.90
2435;DHT22;1228;51.022;6.764;2022-10-26T02:33:06;12.90;99.90
2435;DHT22;1228;51.022;6.764;2022-10-26T02:35:35;13.00;99.90
2435;DHT22;1228;51.022;6.764;2022-10-26T02:38:05;13.00;99.90
2435;DHT22;1228;51.022;6.764;2022-10-26T02:40:32;13.00;99.90
2435;DHT22;1228;51.022;6.764;2022-10-26T02:43:02;13.00;99.90
2435;DHT22;1228;51.022;6.764;2022-10-26T02:45:33;13.10;99.90
2435;DHT22;1228;51.022;6.764;2022-10-26T02:48:00;13.10;99.90
2435;DHT22;1228;51.022;6.764;2022-10-26T02:50:35;13.10;99.90
2435;DHT22;1228;51.022;6.764;2022-10-26T02:53:11;13.10;99.90
2435;DHT22;1228;51.022;6.764;2022-10-26T02:55:45;13.20;99.90
2435;DHT22;1228;51.022;6.764;2022-10-26T02:58:17;13.20;99.90
2435;DHT22;1228;51.022;6.764;2022-10-26T03:00:44;13.30;99.90
2435;DHT22;1228;51.022;6.764;2022-10-26T03:03:11;13.30;99.90
2435;DHT22;1228;51.022;6.764;2022-10-26T03:05:41;13.30;99.90
2435;DHT22;1228;51.022;6.764;2022-10-26T03:08:07;13.30;99.90
2435;DHT22;1228;51.022;6.764;2022-10-26T03:10:41;13.30;99.90
2435;DHT22;1228;51.022;6.764;2022-10-26T03:13:08;13.40;99.90
2435;DHT22;1228;51.022;6.764;2022-10-26T03:15:34;13.30;99.90
2435;DHT22;1228;51.022;6.764;2022-10-26T03:18:00;13.30;99.90
2435;DHT22;1228;51.022;6.764;2022-10-26T03:20:25;13.30;99.90
2435;DHT22;1228;51.022;6.764;2022-10-26T03:22:51;13.40;99.90
2435;DHT22;1228;51.022;6.764;2022-10-26T03:25:17;13.40;99.90
2435;DHT22;1228;51.022;6.764;2022-10-26T03:27:42;13.40;99.90
2435;DHT22;1228;51.022;6.764;2022-10-26T03:30:09;13.40;99.90
2435;DHT22;1228;51.022;6.764;2022-10-26T03:32:35;13.40;99.90
2435;DHT22;1228;51.022;6.764;2022-10-26T03:35:00;13.40;99.90
2435;DHT22;1228;51.022;6.764;2022-10-26T03:37:26;13.50;99.90
2435;DHT22;1228;51.022;6.764;2022-10-26T03:39:52;13.40;99.90
2435;DHT22;1228;51.022;6.764;2022-10-26T03:42:17;13.50;99.90
2435;DHT22;1228;51.022;6.764;2022-10-26T03:44:43;13.50;99.90
2435;DHT22;1228;51.022;6.764;2022-10-26T03:47:08;13.50;99.90
2435;DHT22;1228;51.022;6.764;2022-10-26T03:49:34;13.60;99.90
2435;DHT22;1228;51.022;6.764;2022-10-26T03:52:00;13.60;99.90
2435;DHT22;1228;51.022;6.764;2022-10-26T03:54:26;13.60;99.90
2435;DHT22;1228;51.022;6.764;2022-10-26T03:56:51;13.60;99.90
2435;DHT22;1228;51.022;6.764;2022-10-26T03:59:17;13.60;99.90
2435;DHT22;1228;51.022;6.764;2022-10-26T04:01:43;13.70;99.90
2435;DHT22;1228;51.022;6.764;2022-10-26T04:04:08;13.70;99.90
2435;DHT22;1228;51.022;6.764;2022-10-26T04:06:34;13.70;99.90
2435;DHT22;1228;51.022;6.764;2022-10-26T04:09:00;13.70;99.90
2435;DHT22;1228;51.022;6.764;2022-10-26T04:11:27;13.70;99.90
2435;DHT22;1228;51.022;6.764;2022-10-26T04:13:53;13.70;99.90
2435;DHT22;1228;51.022;6.764;2022-10-26T04:16:19;13.70;99.90
2435;DHT22;1228;51.022;6.764;2022-10-26T04:18:45;13.70;99.90
2435;DHT22;1228;51.022;6.764;2022-10-26T04:21:11;13.80;99.90
2435;DHT22;1228;51.022;6.764;2022-10-26T04:23:36;13.80;99.90
2435;DHT22;1228;51.022;6.764;2022-10-26T04:26:04;13.80;99.90
2435;DHT22;1228;51.022;6.764;2022-10-26T04:28:30;13.80;99.90
2435;DHT22;1228;51.022;6.764;2022-10-26T04:30:55;13.80;99.90
2435;DHT22;1228;51.022;6.764;2022-10-26T04:33:21;13.80;99.90
2435;DHT22;1228;51.022;6.764;2022-10-26T04:35:46;13.80;99.90
2435;DHT22;1228;51.022;6.764;2022-10-26T04:38:12;13.80;99.90
2435;DHT22;1228;51.022;6.764;2022-10-26T04:40:38;13.70;99.90
2435;DHT22;1228;51.022;6.764;2022-10-26T04:43:03;13.70;99.90
2435;DHT22;1228;51.022;6.764;2022-10-26T04:45:29;13.70;99.90
2435;DHT22;1228;51.022;6.764;2022-10-26T04:48:12;13.70;99.90
2435;DHT22;1228;51.022;6.764;2022-10-26T04:50:38;13.70;99.90
2435;DHT22;1228;51.022;6.764;2022-10-26T04:53:06;13.70;99.90
2435;DHT22;1228;51.022;6.764;2022-10-26T04:55:32;13.70;99.90
2435;DHT22;1228;51.022;6.764;2022-10-26T04:57:57;13.70;99.90
2435;DHT22;1228;51.022;6.764;2022-10-26T05:00:23;13.80;99.90
2435;DHT22;1228;51.022;6.764;2022-10-26T05:02:49;13.80;99.90
2435;DHT22;1228;51.022;6.764;2022-10-26T05:05:14;13.80;99.90
2435;DHT22;1228;51.022;6.764;2022-10-26T05:07:40;13.80;99.90
2435;DHT22;1228;51.022;6.764;2022-10-26T05:10:06;13.80;99.90
2435;DHT22;1228;51.022;6.764;2022-10-26T05:12:32;13.90;99.90
2435;DHT22;1228;51.022;6.764;2022-10-26T05:14:58;13.90;99.90
2435;DHT22;1228;51.022;6.764;2022-10-26T05:17:24;13.90;99.90
2435;DHT22;1228;51.022;6.764;2022-10-26T05:19:51;13.90;99.90
2435;DHT22;1228;51.022;6.764;2022-10-26T05:22:24;13.90;99.90
2435;DHT22;1228;51.022;6.764;2022-10-26T05:24:50;13.90;99.90
2435;DHT22;1228;51.022;6.764;2022-10-26T05:27:16;14.00;99.90
2435;DHT22;1228;51.022;6.764;2022-10-26T05:29:42;14.00;99.90
2435;DHT22;1228;51.022;6.764;2022-10-26T05:32:08;14.00;99.90
2435;DHT22;1228;51.022;6.764;2022-10-26T05:34:33;14.00;99.90
2435;DHT22;1228;51.022;6.764;2022-10-26T05:36:59;14.00;99.90
2435;DHT22;1228;51.022;6.764;2022-10-26T05:39:24;14.10;99.90
2435;DHT22;1228;51.022;6.764;2022-10-26T05:41:50;14.10;99.90
2435;DHT22;1228;51.022;6.764;2022-10-26T05:44:16;14.10;99.90
2435;DHT22;1228;51.022;6.764;2022-10-26T05:46:41;14.10;99.90
2435;DHT22;1228;51.022;6.764;2022-10-26T05:49:07;14.20;99.90
2435;DHT22;1228;51.022;6.764;2022-10-26T05:51:33;14.20;99.90
2435;DHT22;1228;51.022;6.764;2022-10-26T05:54:01;14.20;99.90
2435;DHT22;1228;51.022;6.764;2022-10-26T05:56:35;14.20;99.90
2435;DHT22;1228;51.022;6.764;2022-10-26T05:59:02;14.20;99.90
2435;DHT22;1228;51.022;6.764;2022-10-26T06:04:32;14.30;99.90
2435;DHT22;1228;51.022;6.764;2022-10-26T06:07:02;14.30;99.90
2435;DHT22;1228;51.022;6.764;2022-10-26T06:09:28;14.30;99.90
2435;DHT22;1228;51.022;6.764;2022-10-26T06:11:54;14.30;99.90
2435;DHT22;1228;51.022;6.764;2022-10-26T06:14:20;14.40;99.90
2435;DHT22;1228;51.022;6.764;2022-10-26T06:16:58;14.40;99.90
2435;DHT22;1228;51.022;6.764;2022-10-26T06:30:08;14.60;99.90
2435;DHT22;1228;51.022;6.764;2022-10-26T06:32:36;14.60;99.90
2435;DHT22;1228;51.022;6.764;2022-10-26T06:37:31;14.50;99.90
2435;DHT22;1228;51.022;6.764;2022-10-26T06:39:57;14.50;99.90
2435;DHT22;1228;51.022;6.764;2022-10-26T06:42:23;14.50;99.90
2435;DHT22;1228;51.022;6.764;2022-10-26T06:44:49;14.50;99.90
2435;DHT22;1228;51.022;6.764;2022-10-26T06:47:25;14.40;99.90
2435;DHT22;1228;51.022;6.764;2022-10-26T06:50:23;14.40;99.90
2435;DHT22;1228;51.022;6.764;2022-10-26T06:52:59;14.30;99.90
2435;DHT22;1228;51.022;6.764;2022-10-26T06:55:25;14.30;99.90
2435;DHT22;1228;51.022;6.764;2022-10-26T06:57:52;14.20;99.90
2435;DHT22;1228;51.022;6.764;2022-10-26T07:00:23;14.20;99.90
2435;DHT22;1228;51.022;6.764;2022-10-26T07:02:49;14.20;99.90
2435;DHT22;1228;51.022;6.764;2022-10-26T07:05:16;14.20;99.90
2435;DHT22;1228;51.022;6.764;2022-10-26T07:07:46;14.30;99.90
2435;DHT22;1228;51.022;6.764;2022-10-26T07:10:13;14.30;99.90
2435;DHT22;1228;51.022;6.764;2022-10-26T07:12:39;14.40;99.90
2435;DHT22;1228;51.022;6.764;2022-10-26T07:15:05;14.50;99.90
2435;DHT22;1228;51.022;6.764;2022-10-26T07:17:45;14.50;99.90
2435;DHT22;1228;51.022;6.764;2022-10-26T07:20:19;14.70;99.90
2435;DHT22;1228;51.022;6.764;2022-10-26T07:22:54;14.80;99.90
2435;DHT22;1228;51.022;6.764;2022-10-26T07:25:20;14.90;99.90
2435;DHT22;1228;51.022;6.764;2022-10-26T07:27:46;14.90;99.90
2435;DHT22;1228;51.022;6.764;2022-10-26T07:30:12;14.90;99.90
2435;DHT22;1228;51.022;6.764;2022-10-26T07:32:37;14.90;99.90
2435;DHT22;1228;51.022;6.764;2022-10-26T07:35:03;14.90;99.90
2435;DHT22;1228;51.022;6.764;2022-10-26T07:37:29;14.90;99.90
2435;DHT22;1228;51.022;6.764;2022-10-26T07:39:55;14.80;99.90
2435;DHT22;1228;51.022;6.764;2022-10-26T07:42:20;14.80;99.90
2435;DHT22;1228;51.022;6.764;2022-10-26T07:44:46;14.70;99.90
2435;DHT22;1228;51.022;6.764;2022-10-26T07:47:12;14.70;99.90
2435;DHT22;1228;51.022;6.764;2022-10-26T07:49:38;14.90;99.90
2435;DHT22;1228;51.022;6.764;2022-10-26T07:52:04;15.10;99.90
2435;DHT22;1228;51.022;6.764;2022-10-26T07:54:30;15.30;99.90
2435;DHT22;1228;51.022;6.764;2022-10-26T07:56:56;15.50;99.90
2435;DHT22;1228;51.022;6.764;2022-10-26T07:59:22;15.80;99.90
2435;DHT22;1228;51.022;6.764;2022-10-26T08:01:48;16.20;99.90
2435;DHT22;1228;51.022;6.764;2022-10-26T08:04:14;16.50;99.90
2435;DHT22;1228;51.022;6.764;2022-10-26T08:06:39;16.90;99.90
2435;DHT22;1228;51.022;6.764;2022-10-26T08:09:05;17.20;99.90
2435;DHT22;1228;51.022;6.764;2022-10-26T08:11:31;17.30;99.90
2435;DHT22;1228;51.022;6.764;2022-10-26T08:13:57;17.50;99.90
2435;DHT22;1228;51.022;6.764;2022-10-26T08:16:23;17.70;99.90
2435;DHT22;1228;51.022;6.764;2022-10-26T08:18:50;17.80;99.90
2435;DHT22;1228;51.022;6.764;2022-10-26T08:21:16;17.90;99.90
2435;DHT22;1228;51.022;6.764;2022-10-26T08:23:42;18.10;99.90
2435;DHT22;1228;51.022;6.764;2022-10-26T08:26:08;18.30;99.90
2435;DHT22;1228;51.022;6.764;2022-10-26T08:28:38;18.30;99.90
2435;DHT22;1228;51.022;6.764;2022-10-26T08:31:04;18.40;99.90
2435;DHT22;1228;51.022;6.764;2022-10-26T08:33:30;18.50;99.90
2435;DHT22;1228;51.022;6.764;2022-10-26T08:35:58;18.60;99.90
2435;DHT22;1228;51.022;6.764;2022-10-26T08:38:24;18.40;99.90
2435;DHT22;1228;51.022;6.764;2022-10-26T08:40:50;18.10;99.90
2435;DHT22;1228;51.022;6.764;2022-10-26T08:45:58;17.50;99.90
2435;DHT22;1228;51.022;6.764;2022-10-26T08:48:32;17.20;99.90
2435;DHT22;1228;51.022;6.764;2022-10-26T08:51:11;17.10;99.90
2435;DHT22;1228;51.022;6.764;2022-10-26T08:53:42;16.90;99.90
2435;DHT22;1228;51.022;6.764;2022-10-26T08:56:24;16.70;99.90
2435;DHT22;1228;51.022;6.764;2022-10-26T09:01:36;16.40;99.90
2435;DHT22;1228;51.022;6.764;2022-10-26T09:04:03;16.30;99.90
2435;DHT22;1228;51.022;6.764;2022-10-26T09:06:58;16.40;99.90
2435;DHT22;1228;51.022;6.764;2022-10-26T09:12:21;16.70;99.90
2435;DHT22;1228;51.022;6.764;2022-10-26T09:15:23;17.00;99.90
2435;DHT22;1228;51.022;6.764;2022-10-26T09:21:00;18.70;99.90
2435;DHT22;1228;51.022;6.764;2022-10-26T09:23:58;19.60;99.90
2435;DHT22;1228;51.022;6.764;2022-10-26T09:26:57;20.40;99.90
2435;DHT22;1228;51.022;6.764;2022-10-26T09:29:28;21.20;99.90
2435;DHT22;1228;51.022;6.764;2022-10-26T09:31:56;21.50;99.90
2435;DHT22;1228;51.022;6.764;2022-10-26T09:34:30;21.80;99.90
2435;DHT22;1228;51.022;6.764;2022-10-26T09:36:57;22.00;99.90
2435;DHT22;1228;51.022;6.764;2022-10-26T09:39:33;22.00;99.90
2435;DHT22;1228;51.022;6.764;2022-10-26T09:42:16;22.10;99.90
2435;DHT22;1228;51.022;6.764;2022-10-26T09:45:14;22.10;99.90
2435;DHT22;1228;51.022;6.764;2022-10-26T09:47:45;22.30;99.90
2435;DHT22;1228;51.022;6.764;2022-10-26T09:50:28;22.30;99.90
2435;DHT22;1228;51.022;6.764;2022-10-26T09:52:55;22.50;99.90
2435;DHT22;1228;51.022;6.764;2022-10-26T09:55:21;22.50;99.90
2435;DHT22;1228;51.022;6.764;2022-10-26T09:57:50;22.50;99.90
2435;DHT22;1228;51.022;6.764;2022-10-26T10:00:19;22.50;99.90
2435;DHT22;1228;51.022;6.764;2022-10-26T10:02:50;22.60;99.90
2435;DHT22;1228;51.022;6.764;2022-10-26T10:05:26;22.70;99.90
2435;DHT22;1228;51.022;6.764;2022-10-26T10:11:15;22.60;99.90
2435;DHT22;1228;51.022;6.764;2022-10-26T10:13:42;22.60;99.90
2435;DHT22;1228;51.022;6.764;2022-10-26T10:16:20;22.60;99.90
2435;DHT22;1228;51.022;6.764;2022-10-26T10:18:57;22.80;99.90
2435;DHT22;1228;51.022;6.764;2022-10-26T10:21:43;23.00;99.90
2435;DHT22;1228;51.022;6.764;2022-10-26T10:24:28;23.20;99.90
2435;DHT22;1228;51.022;6.764;2022-10-26T10:27:03;23.60;99.90
2435;DHT22;1228;51.022;6.764;2022-10-26T10:29:38;23.90;99.90
2435;DHT22;1228;51.022;6.764;2022-10-26T10:32:04;24.20;99.90
2435;DHT22;1228;51.022;6.764;2022-10-26T10:34:32;24.30;99.90
2435;DHT22;1228;51.022;6.764;2022-10-26T10:36:59;24.40;99.90
2435;DHT22;1228;51.022;6.764;2022-10-26T10:39:35;24.30;99.90
2435;DHT22;1228;51.022;6.764;2022-10-26T10:42:04;24.10;99.90
2435;DHT22;1228;51.022;6.764;2022-10-26T10:44:32;24.20;99.90
2435;DHT22;1228;51.022;6.764;2022-10-26T10:47:06;24.10;99.90
2435;DHT22;1228;51.022;6.764;2022-10-26T10:49:32;24.30;99.90
2435;DHT22;1228;51.022;6.764;2022-10-26T10:51:59;24.40;99.90
2435;DHT22;1228;51.022;6.764;2022-10-26T10:59:50;24.70;99.90
2435;DHT22;1228;51.022;6.764;2022-10-26T11:08:04;25.70;99.90
2435;DHT22;1228;51.022;6.764;2022-10-26T11:10:41;25.40;99.90
2435;DHT22;1228;51.022;6.764;2022-10-26T11:13:24;25.40;99.90
2435;DHT22;1228;51.022;6.764;2022-10-26T11:15:57;25.50;99.90
2435;DHT22;1228;51.022;6.764;2022-10-26T11:21:02;25.90;99.90
2435;DHT22;1228;51.022;6.764;2022-10-26T11:23:41;25.80;99.90
2435;DHT22;1228;51.022;6.764;2022-10-26T11:26:34;25.40;99.90
2435;DHT22;1228;51.022;6.764;2022-10-26T11:29:10;25.20;99.90
2435;DHT22;1228;51.022;6.764;2022-10-26T11:31:46;25.20;99.90
2435;DHT22;1228;51.022;6.764;2022-10-26T11:34:30;25.20;99.90
2435;DHT22;1228;51.022;6.764;2022-10-26T11:42:35;25.10;99.90
2435;DHT22;1228;51.022;6.764;2022-10-26T11:45:23;24.90;99.90
2435;DHT22;1228;51.022;6.764;2022-10-26T11:47:53;25.10;99.90
2435;DHT22;1228;51.022;6.764;2022-10-26T11:50:29;25.20;99.90
2435;DHT22;1228;51.022;6.764;2022-10-26T11:53:05;25.00;99.90
2435;DHT22;1228;51.022;6.764;2022-10-26T11:55:34;24.90;99.90
2435;DHT22;1228;51.022;6.764;2022-10-26T11:58:00;25.00;99.90
2435;DHT22;1228;51.022;6.764;2022-10-26T12:00:28;25.10;99.90
2435;DHT22;1228;51.022;6.764;2022-10-26T12:03:00;25.20;99.90
2435;DHT22;1228;51.022;6.764;2022-10-26T12:08:17;25.40;99.90
2435;DHT22;1228;51.022;6.764;2022-10-26T12:10:49;25.50;99.90
2435;DHT22;1228;51.022;6.764;2022-10-26T12:18:53;25.20;99.90
2435;DHT22;1228;51.022;6.764;2022-10-26T12:21:24;25.40;99.90
2435;DHT22;1228;51.022;6.764;2022-10-26T12:24:23;25.20;99.90
2435;DHT22;1228;51.022;6.764;2022-10-26T12:26:55;25.00;99.90
2435;DHT22;1228;51.022;6.764;2022-10-26T12:29:46;24.90;99.90
2435;DHT22;1228;51.022;6.764;2022-10-26T12:39:53;24.70;99.90
2435;DHT22;1228;51.022;6.764;2022-10-26T12:52:52;24.90;99.90
2435;DHT22;1228;51.022;6.764;2022-10-26T12:55:41;25.00;99.90
2435;DHT22;1228;51.022;6.764;2022-10-26T13:06:13;24.70;99.90
2435;DHT22;1228;51.022;6.764;2022-10-26T13:08:47;24.90;99.90
2435;DHT22;1228;51.022;6.764;2022-10-26T13:11:19;25.00;99.90
2435;DHT22;1228;51.022;6.764;2022-10-26T13:13:53;24.90;99.90
2435;DHT22;1228;51.022;6.764;2022-10-26T13:16:19;24.80;99.90
2435;DHT22;1228;51.022;6.764;2022-10-26T13:18:46;24.90;99.90
2435;DHT22;1228;51.022;6.764;2022-10-26T13:21:15;24.80;99.90
2435;DHT22;1228;51.022;6.764;2022-10-26T13:26:14;24.60;99.90
2435;DHT22;1228;51.022;6.764;2022-10-26T13:39:28;24.50;99.90
2435;DHT22;1228;51.022;6.764;2022-10-26T13:41:55;24.60;99.90
2435;DHT22;1228;51.022;6.764;2022-10-26T13:44:32;24.50;99.90
2435;DHT22;1228;51.022;6.764;2022-10-26T13:47:16;24.40;99.90
2435;DHT22;1228;51.022;6.764;2022-10-26T13:49:47;24.40;99.90
2435;DHT22;1228;51.022;6.764;2022-10-26T13:52:19;24.50;99.90
2435;DHT22;1228;51.022;6.764;2022-10-26T13:54:57;24.60;99.90
2435;DHT22;1228;51.022;6.764;2022-10-26T13:57:42;24.60;99.90
2435;DHT22;1228;51.022;6.764;2022-10-26T14:00:22;24.80;99.90
2435;DHT22;1228;51.022;6.764;2022-10-26T14:02:47;24.70;99.90
2435;DHT22;1228;51.022;6.764;2022-10-26T14:05:15;24.80;99.90
2435;DHT22;1228;51.022;6.764;2022-10-26T14:10:36;25.00;99.90
2435;DHT22;1228;51.022;6.764;2022-10-26T14:13:08;24.90;99.90
2435;DHT22;1228;51.022;6.764;2022-10-26T14:15:35;24.90;99.90
2435;DHT22;1228;51.022;6.764;2022-10-26T14:18:02;24.90;99.90
2435;DHT22;1228;51.022;6.764;2022-10-26T14:20:30;24.80;99.90
2435;DHT22;1228;51.022;6.764;2022-10-26T14:22:56;24.60;99.90
2435;DHT22;1228;51.022;6.764;2022-10-26T14:25:24;24.30;99.90
2435;DHT22;1228;51.022;6.764;2022-10-26T14:27:51;24.20;99.90
2435;DHT22;1228;51.022;6.764;2022-10-26T14:30:34;24.10;99.90
2435;DHT22;1228;51.022;6.764;2022-10-26T14:33:00;23.90;99.90
2435;DHT22;1228;51.022;6.764;2022-10-26T14:35:41;23.80;99.90
2435;DHT22;1228;51.022;6.764;2022-10-26T14:40:39;23.40;99.90
2435;DHT22;1228;51.022;6.764;2022-10-26T14:43:05;23.30;99.90
2435;DHT22;1228;51.022;6.764;2022-10-26T14:45:33;23.10;99.90
2435;DHT22;1228;51.022;6.764;2022-10-26T14:48:01;23.00;99.90
2435;DHT22;1228;51.022;6.764;2022-10-26T14:50:28;22.90;99.90
2435;DHT22;1228;51.022;6.764;2022-10-26T14:53:15;22.70;99.90
2435;DHT22;1228;51.022;6.764;2022-10-26T14:55:50;22.70;99.90
2435;DHT22;1228;51.022;6.764;2022-10-26T14:58:21;22.60;99.90
2435;DHT22;1228;51.022;6.764;2022-10-26T15:00:47;22.60;99.90
2435;DHT22;1228;51.022;6.764;2022-10-26T15:03:21;22.50;99.90
2435;DHT22;1228;51.022;6.764;2022-10-26T15:05:46;22.50;99.90
2435;DHT22;1228;51.022;6.764;2022-10-26T15:08:41;22.40;99.90
2435;DHT22;1228;51.022;6.764;2022-10-26T15:11:08;22.40;99.90
2435;DHT22;1228;51.022;6.764;2022-10-26T15:13:34;22.30;99.90
2435;DHT22;1228;51.022;6.764;2022-10-26T15:16:24;22.20;99.90
2435;DHT22;1228;51.022;6.764;2022-10-26T15:19:12;22.10;99.90
2435;DHT22;1228;51.022;6.764;2022-10-26T15:21:45;22.00;99.90
2435;DHT22;1228;51.022;6.764;2022-10-26T15:26:49;21.80;99.90
2435;DHT22;1228;51.022;6.764;2022-10-26T15:29:44;21.70;99.90
2435;DHT22;1228;51.022;6.764;2022-10-26T15:32:30;21.50;99.90
2435;DHT22;1228;51.022;6.764;2022-10-26T15:37:44;21.20;99.90
2435;DHT22;1228;51.022;6.764;2022-10-26T15:40:09;21.10;99.90
2435;DHT22;1228;51.022;6.764;2022-10-26T15:42:37;21.00;99.90
2435;DHT22;1228;51.022;6.764;2022-10-26T15:45:04;20.80;99.90
2435;DHT22;1228;51.022;6.764;2022-10-26T15:47:37;20.60;99.90
2435;DHT22;1228;51.022;6.764;2022-10-26T15:50:03;20.40;99.90
2435;DHT22;1228;51.022;6.764;2022-10-26T15:52:30;20.20;99.90
2435;DHT22;1228;51.022;6.764;2022-10-26T15:54:56;20.10;99.90
2435;DHT22;1228;51.022;6.764;2022-10-26T15:57:27;19.90;99.90
2435;DHT22;1228;51.022;6.764;2022-10-26T15:59:53;19.80;99.90
2435;DHT22;1228;51.022;6.764;2022-10-26T16:02:18;19.60;99.90
2435;DHT22;1228;51.022;6.764;2022-10-26T16:04:44;19.40;99.90
2435;DHT22;1228;51.022;6.764;2022-10-26T16:07:14;19.20;99.90
2435;DHT22;1228;51.022;6.764;2022-10-26T16:09:41;19.00;99.90
2435;DHT22;1228;51.022;6.764;2022-10-26T16:12:11;18.80;99.90
2435;DHT22;1228;51.022;6.764;2022-10-26T16:14:37;18.60;99.90
2435;DHT22;1228;51.022;6.764;2022-10-26T16:17:03;18.40;99.90
2435;DHT22;1228;51.022;6.764;2022-10-26T16:19:29;18.20;99.90
2435;DHT22;1228;51.022;6.764;2022-10-26T16:21:55;18.10;99.90
2435;DHT22;1228;51.022;6.764;2022-10-26T16:24:20;18.00;99.90
2435;DHT22;1228;51.022;6.764;2022-10-26T16:26:46;17.80;99.90
2435;DHT22;1228;51.022;6.764;2022-10-26T16:29:12;17.60;99.90
2435;DHT22;1228;51.022;6.764;2022-10-26T16:31:37;17.50;99.90
2435;DHT22;1228;51.022;6.764;2022-10-26T16:34:03;17.40;99.90
2435;DHT22;1228;51.022;6.764;2022-10-26T16:36:29;17.20;99.90
2435;DHT22;1228;51.022;6.764;2022-10-26T16:38:58;17.10;99.90
2435;DHT22;1228;51.022;6.764;2022-10-26T16:41:23;17.00;99.90
2435;DHT22;1228;51.022;6.764;2022-10-26T16:43:49;16.90;99.90
2435;DHT22;1228;51.022;6.764;2022-10-26T16:46:17;16.70;99.90
2435;DHT22;1228;51.022;6.764;2022-10-26T16:48:44;16.60;99.90
2435;DHT22;1228;51.022;6.764;2022-10-26T16:51:14;16.60;99.90
2435;DHT22;1228;51.022;6.764;2022-10-26T16:53:40;16.60;99.90
2435;DHT22;1228;51.022;6.764;2022-10-26T16:56:11;16.60;99.90
2435;DHT22;1228;51.022;6.764;2022-10-26T16:58:38;16.50;99.90
2435;DHT22;1228;51.022;6.764;2022-10-26T17:01:05;16.50;99.90
2435;DHT22;1228;51.022;6.764;2022-10-26T17:03:31;16.50;99.90
2435;DHT22;1228;51.022;6.764;2022-10-26T17:05:58;16.50;99.90
2435;DHT22;1228;51.022;6.764;2022-10-26T17:08:25;16.50;99.90
2435;DHT22;1228;51.022;6.764;2022-10-26T17:10:51;16.40;99.90
2435;DHT22;1228;51.022;6.764;2022-10-26T17:13:17;16.40;99.90
2435;DHT22;1228;51.022;6.764;2022-10-26T17:15:42;16.40;99.90
2435;DHT22;1228;51.022;6.764;2022-10-26T17:18:08;16.50;99.90
2435;DHT22;1228;51.022;6.764;2022-10-26T17:20:35;16.50;99.90
2435;DHT22;1228;51.022;6.764;2022-10-26T17:23:01;16.50;99.90
2435;DHT22;1228;51.022;6.764;2022-10-26T17:25:27;16.50;99.90
2435;DHT22;1228;51.022;6.764;2022-10-26T17:27:52;16.60;99.90
2435;DHT22;1228;51.022;6.764;2022-10-26T17:30:18;16.60;99.90
2435;DHT22;1228;51.022;6.764;2022-10-26T17:32:43;16.50;99.90
2435;DHT22;1228;51.022;6.764;2022-10-26T17:35:09;16.50;99.90
2435;DHT22;1228;51.022;6.764;2022-10-26T17:37:35;16.50;99.90
2435;DHT22;1228;51.022;6.764;2022-10-26T17:40:02;16.50;99.90
2435;DHT22;1228;51.022;6.764;2022-10-26T17:42:29;16.50;99.90
2435;DHT22;1228;51.022;6.764;2022-10-26T17:44:54;16.60;99.90
2435;DHT22;1228;51.022;6.764;2022-10-26T17:47:20;16.60;99.90
2435;DHT22;1228;51.022;6.764;2022-10-26T17:49:45;16.60;99.90
2435;DHT22;1228;51.022;6.764;2022-10-26T17:52:11;16.60;99.90
2435;DHT22;1228;51.022;6.764;2022-10-26T17:54:36;16.60;99.90
2435;DHT22;1228;51.022;6.764;2022-10-26T17:57:02;16.70;99.90
2435;DHT22;1228;51.022;6.764;2022-10-26T17:59:28;16.70;99.90
2435;DHT22;1228;51.022;6.764;2022-10-26T18:01:53;16.70;99.90
2435;DHT22;1228;51.022;6.764;2022-10-26T18:04:19;16.70;99.90
2435;DHT22;1228;51.022;6.764;2022-10-26T18:06:44;16.60;99.90
2435;DHT22;1228;51.022;6.764;2022-10-26T18:09:10;16.70;99.90
2435;DHT22;1228;51.022;6.764;2022-10-26T18:11:36;16.70;99.90
2435;DHT22;1228;51.022;6.764;2022-10-26T18:14:01;16.70;99.90
2435;DHT22;1228;51.022;6.764;2022-10-26T18:16:27;16.80;99.90
2435;DHT22;1228;51.022;6.764;2022-10-26T18:18:59;16.80;99.90
2435;DHT22;1228;51.022;6.764;2022-10-26T18:21:25;16.80;99.90
2435;DHT22;1228;51.022;6.764;2022-10-26T18:23:52;16.80;99.90
2435;DHT22;1228;51.022;6.764;2022-10-26T18:26:19;16.80;99.90
2435;DHT22;1228;51.022;6.764;2022-10-26T18:28:45;16.80;99.90
2435;DHT22;1228;51.022;6.764;2022-10-26T18:31:13;16.70;99.90
2435;DHT22;1228;51.022;6.764;2022-10-26T18:33:39;16.60;99.90
2435;DHT22;1228;51.022;6.764;2022-10-26T18:36:11;16.70;99.90